Compton, Arkansas
Current Conditions -  °F | °C
As of 5:53 PM on Sunday 23 Nov 2014 (Local Time) from KHRO Reporting Station
Clear Clear  
Wind Chill: 55°   Ceiling: Unl
Heat Index: 55°   Visibility: 10mi
Dew Point: 53°   Wind: 7mph
Humidity: 93%   Direction: 160°SSE
Pressure: 29.32"   Gusts: NA
Location:  36.1°N, 93.3°W
Report Text: KHRO 232353Z AUTO 16006KT 10SM CLR 13/12 A2932 RMK AO2 SLP921 T01280117 10172 20128 56003
Loading
Personal Weather Stations






























Interactive Weather Map New forecast layout! Learn more

10-Day Weather Forecast

Advertisements
Track Severe Weather on mobile